Data for 10/28/2006

Time Sea-Level Adjusted Pressure Absolute Pressure Temperature Relative Humidity Dew Point   
(mb) (inHg) (mb) (inHg) (C) (F) (%) (C) (F)
00:05 1024 30.24 853 25.19 9.8 49.6 26 -8.7 16.4
00:10 1024 30.24 853 25.19 9.5 49.1 27 -8.5 16.7
00:15 1024 30.24 853 25.19 9.3 48.8 27 -8.6 16.5
00:20 1024 30.24 853 25.19 9.2 48.6 28 -8.4 16.9
00:25 1024 30.24 853 25.19 9.1 48.3 28 -8.3 17.1
00:30 1024 30.24 853 25.19 9.1 48.4 28 -8.6 16.6
00:35 1024 30.24 853 25.19 9.2 48.6 27 -8.8 16.2
00:40 1024 30.24 853 25.19 9.4 48.9 26 -9 15.7
00:45 1024 30.24 853 25.19 9.5 49 27 -8.6 16.6
00:50 1024 30.24 853 25.19 9.1 48.4 27 -9.1 15.5
00:55 1024 30.24 853 25.19 9.3 48.7 26 -9.2 15.4
01:00 1024 30.24 853 25.19 9.9 49.7 25 -9.2 15.4
01:05 1024 30.24 853 25.19 10.1 50.2 23 -10.1 13.8
01:10 1024 30.24 853 25.19 10.3 50.5 26 -8.2 17.2
01:15 1024 30.24 853 25.19 9.2 48.6 26 -9.2 15.5
01:20 1024 30.24 853 25.19 9.2 48.6 26 -9.1 15.6
01:25 1024 30.24 853 25.19 9.1 48.4 26 -9.2 15.5
01:30 1024 30.24 853 25.19 9.4 48.8 27 -8.9 16
01:35 1024 30.24 853 25.19 9.1 48.4 27 -9 15.7
01:40 1024 30.24 853 25.19 9.1 48.3 27 -9.2 15.5
01:45 1024 30.24 853 25.19 9 48.3 27 -8.8 16.1
01:50 1024 30.24 853 25.19 8.6 47.4 26 -9.8 14.4
01:55 1024 30.24 853 25.19 8.6 47.4 29 -8.3 17
02:00 1024 30.24 853 25.19 8.3 46.9 27 -9.7 14.5
02:05 1024 30.24 853 25.19 8.3 46.9 29 -8.8 16.2
02:10 1024 30.24 853 25.19 7.6 45.6 31 -8.7 16.4
02:15 1024 30.24 853 25.19 7.6 45.6 30 -9 15.9
02:20 1024 30.24 853 25.19 7.7 45.8 31 -8.5 16.7
02:25 1024 30.24 853 25.19 7.4 45.4 35 -7.2 19.1
02:30 1024 30.24 853 25.19 6.3 43.4 36 -7.5 18.5
02:35 1024 30.24 853 25.19 5.5 41.8 42 -6.5 20.3
02:40 1024 30.24 853 25.19 4.4 39.9 46 -6.4 20.6
02:45 1024 30.24 853 25.19 3.4 38.2 49 -6.3 20.7
02:50 1024 30.24 853 25.19 4.1 39.3 42 -7.8 17.9
02:55 1024 30.24 853 25.19 4.9 40.8 39 -7.9 17.7
03:00 1024 30.24 853 25.19 5.6 42 34 -9 15.7
03:05 1024 30.24 853 25.19 6.4 43.5 31 -9.6 14.7
03:10 1024 30.24 853 25.19 6.6 44 35 -7.7 18.1
03:15 1024 30.24 853 25.19 5.8 42.5 36 -8 17.6
03:20 1024 30.24 853 25.19 5.7 42.2 33 -9.6 14.8
03:25 1024 30.24 853 25.19 6.7 44 34 -7.9 17.7
03:30 1024 30.24 853 25.19 6.3 43.3 34 -8.4 16.9
03:35 1024 30.24 853 25.19 6.5 43.7 35 -7.7 18.1
03:40 1024 30.24 853 25.19 6 42.8 31 -9.7 14.5
03:45 1024 30.24 853 25.19 6.1 42.9 38 -7.2 19
03:50 1024 30.24 853 25.19 5.2 41.4 36 -8.6 16.6
03:55 1024 30.24 853 25.19 5.1 41.2 38 -8.1 17.4
04:00 1024 30.24 853 25.19 4.7 40.4 42 -7.1 19.2
04:05 1024 30.24 853 25.19 4.1 39.3 42 -7.7 18.2
04:10 1023 30.21 853 25.19 4.2 39.6 42 -7.6 18.3
04:15 1023 30.21 853 25.19 4.8 40.7 38 -8.4 16.8
04:20 1023 30.21 853 25.19 5.6 42.1 36 -8.5 16.8
04:25 1023 30.21 853 25.19 5 41.1 39 -7.8 17.9
04:30 1023 30.21 853 25.19 5.2 41.3 37 -8.3 17
04:35 1023 30.21 852 25.16 5.4 41.6 33 -9.5 14.9
04:40 1023 30.21 852 25.16 6.2 43.2 31 -9.6 14.7
04:45 1023 30.21 852 25.16 6.1 43 33 -8.9 16.1
04:50 1023 30.21 852 25.16 6 42.7 33 -9 15.8
04:55 1023 30.21 853 25.19 5.7 42.2 35 -8.7 16.3
05:00 1023 30.21 853 25.19 4.7 40.4 40 -7.6 18.2
05:05 1023 30.21 853 25.19 3.7 38.7 45 -7.2 19.1
05:10 1023 30.21 853 25.19 3 37.4 47 -7.3 18.8
05:15 1023 30.21 853 25.19 3.1 37.6 45 -7.7 18.1
05:20 1023 30.21 853 25.19 3.3 37.9 43 -8.2 17.3
05:25 1023 30.21 853 25.19 3.7 38.7 39 -8.9 16
05:30 1023 30.21 853 25.19 4.4 40 38 -8.7 16.4
05:35 1023 30.21 853 25.19 4.7 40.5 36 -9 15.7
05:40 1023 30.21 853 25.19 4.8 40.6 39 -8 17.6
05:45 1023 30.21 853 25.19 4.6 40.2 36 -9.4 15.1
05:50 1023 30.21 853 25.19 4.6 40.2 38 -8.5 16.6
05:55 1023 30.21 853 25.19 4.2 39.6 37 -9.1 15.7
06:00 1023 30.21 853 25.19 4.3 39.7 35 -9.9 14.2
06:05 1023 30.21 853 25.19 4.7 40.5 33 -10.2 13.7
06:10 1023 30.21 853 25.19 4.5 40.1 37 -8.9 16
06:15 1023 30.21 852 25.16 4 39.3 35 -10.1 13.8
06:20 1023 30.21 852 25.16 4.2 39.6 36 -9.7 14.6
06:25 1023 30.21 852 25.16 4.6 40.3 32 -10.9 12.5
06:30 1023 30.21 852 25.16 5 41 33 -10 14
06:35 1023 30.21 852 25.16 5.4 41.7 30 -10.7 12.7
06:40 1023 30.21 852 25.16 5.5 41.9 30 -10.6 13
06:45 1023 30.21 852 25.16 5.2 41.4 32 -10.1 13.8
06:50 1023 30.21 852 25.16 5.1 41.1 31 -10.6 13
06:55 1023 30.21 852 25.16 5.1 41.1 33 -9.8 14.3
07:00 1023 30.21 852 25.16 4.6 40.2 34 -10 14
07:05 1023 30.21 852 25.16 4.7 40.5 34 -9.7 14.5
07:10 1023 30.21 853 25.19 4.7 40.4 33 -10.2 13.6
07:15 1023 30.21 853 25.19 5.1 41.2 32 -10.2 13.7
07:20 1023 30.21 853 25.19 5.3 41.5 31 -10.5 13.2
07:25 1023 30.21 852 25.16 5.9 42.6 30 -10.6 12.9
07:30 1023 30.21 852 25.16 6 42.8 29 -10.6 12.9
07:35 1023 30.21 852 25.16 6 42.9 31 -9.9 14.2
07:40 1023 30.21 852 25.16 5.9 42.6 29 -10.9 12.3
07:45 1023 30.21 852 25.16 6.2 43.1 30 -10 14
07:50 1023 30.21 852 25.16 6.1 43 28 -11.3 11.7
07:55 1023 30.21 852 25.16 6.3 43.4 27 -11.5 11.3
08:00 1023 30.21 852 25.16 6.9 44.4 27 -10.9 12.3
08:05 1023 30.21 852 25.16 7.5 45.4 26 -10.9 12.4
08:10 1023 30.21 852 25.16 6.8 44.2 30 -9.7 14.6
08:15 1023 30.21 852 25.16 5.4 41.7 33 -9.7 14.5
08:20 1023 30.21 852 25.16 5.6 42 31 -10.2 13.6
08:25 1023 30.21 852 25.16 6 42.8 31 -9.8 14.4
08:30 1023 30.21 852 25.16 6 42.8 31 -10.1 13.9
08:35 1023 30.21 852 25.16 6.6 43.8 30 -9.8 14.4
08:40 1023 30.21 852 25.16 6 42.9 31 -9.8 14.4
08:45 1023 30.21 852 25.16 5.9 42.7 30 -10.3 13.4
08:50 1023 30.21 852 25.16 6.3 43.4 32 -9.3 15.3
08:55 1023 30.21 852 25.16 5.6 42.1 35 -8.7 16.4
09:00 1023 30.21 852 25.16 5.1 41.2 34 -9.3 15.3
09:05 1023 30.21 852 25.16 5.1 41.1 34 -9.6 14.7
09:10 1023 30.21 852 25.16 5.2 41.4 35 -9.2 15.5
09:15 1023 30.21 852 25.16 5.5 42 33 -9.4 15.1
09:20 1023 30.21 852 25.16 6 42.8 32 -9.6 14.8
09:25 1023 30.21 852 25.16 6.8 44.3 30 -9.7 14.5
09:30 1023 30.21 852 25.16 7.9 46.1 29 -9 15.8
09:35 1023 30.21 852 25.16 7.8 46 30 -8.8 16.1
09:40 1023 30.21 852 25.16 8.2 46.8 29 -8.8 16.1
09:45 1023 30.21 852 25.16 8.5 47.2 28 -8.8 16.1
09:50 1023 30.21 852 25.16 8.8 47.8 28 -8.5 16.6
09:55 1023 30.21 852 25.16 9.5 49 28 -8.1 17.4
10:00 1023 30.21 852 25.16 9.6 49.3 28 -8.2 17.2
10:05 1023 30.21 852 25.16 9.4 48.9 29 -7.9 17.8
10:10 1023 30.21 852 25.16 9.6 49.4 27 -8.3 17
10:15 1023 30.21 852 25.16 10.1 50.1 28 -7.8 17.9
10:20 1023 30.21 852 25.16 10.1 50.2 27 -8 17.6
10:25 1023 30.21 852 25.16 10.2 50.3 27 -8 17.6
10:30 1022 30.18 852 25.16 10.6 51.1 27 -7.7 18.1
10:35 1022 30.18 852 25.16 10.9 51.5 26 -7.6 18.3
10:40 1022 30.18 852 25.16 10.3 50.5 28 -7.3 18.8
10:45 1022 30.18 852 25.16 10.3 50.5 28 -7.5 18.5
10:50 1022 30.18 852 25.16 10.3 50.6 29 -7 19.4
10:55 1022 30.18 852 25.16 11.1 52 28 -6.7 20
11:00 1022 30.18 852 25.16 11.5 52.6 28 -6.6 20.1
11:05 1022 30.18 852 25.16 12.5 54.5 27 -5.9 21.4
11:10 1022 30.18 852 25.16 12.5 54.5 26 -6.3 20.6
11:15 1022 30.18 852 25.16 13.4 56.2 25 -6.2 20.9
11:20 1022 30.18 852 25.16 14 57.2 25 -5.9 21.3
11:25 1022 30.18 851 25.13 14.4 57.9 24 -5.7 21.8
11:30 1022 30.18 851 25.13 14.7 58.4 24 -5.5 22.2
11:35 1022 30.18 851 25.13 14.8 58.6 25 -5.3 22.5
11:40 1022 30.18 851 25.13 15.4 59.7 24 -5.2 22.6
11:45 1022 30.18 851 25.13 15.6 60 24 -4.7 23.5
11:50 1022 30.18 851 25.13 15.5 60 23 -5.4 22.3
11:55 1022 30.18 851 25.13 15.9 60.5 23 -4.9 23.2
12:00 1022 30.18 851 25.13 15.9 60.6 22 -5.8 21.6
12:05 1022 30.18 851 25.13 15.8 60.5 22 -5.9 21.4
12:10 1022 30.18 851 25.13 16.2 61.1 21 -6 21.2
12:15 1021 30.15 851 25.13 16.6 61.8 21 -5.8 21.5
12:20 1021 30.15 851 25.13 17.2 62.9 18 -7 19.4
12:25 1021 30.15 850 25.1 17.7 63.9 16 -8.6 16.5
12:30 1021 30.15 850 25.1 17.8 64 14 -10.4 13.3
12:35 1021 30.15 850 25.1 17.4 63.3 13 -11.1 12.1
12:40 1021 30.15 850 25.1 17.2 63 13 -11.1 12
12:45 1021 30.15 850 25.1 17.5 63.5 14 -10.5 13.1
12:50 1021 30.15 850 25.1 17.9 64.1 12 -11.4 11.5
12:55 1021 30.15 850 25.1 17.6 63.6 13 -11.6 11.1
13:00 1021 30.15 850 25.1 17.8 64.1 12 -11.6 11.1
13:05 1020 30.12 850 25.1 17.8 64 12 -12.1 10.3
13:10 1020 30.12 849 25.07 17.4 63.3 12 -12.3 9.9
13:15 1020 30.12 849 25.07 17.7 63.8 12 -11.6 11.1
13:20 1020 30.12 849 25.07 17.9 64.3 12 -11.3 11.6
13:25 1020 30.12 849 25.07 18 64.4 12 -11.8 10.8
13:30 1020 30.12 849 25.07 18.1 64.5 11 -12.4 9.7
13:35 1020 30.12 849 25.07 18.6 65.5 13 -9.9 14.2
13:40 1020 30.12 849 25.07 18.9 66 14 -9.3 15.3
13:45 1020 30.12 849 25.07 19.2 66.5 14 -8.8 16.1
13:50 1020 30.12 849 25.07 19.3 66.7 14 -8.6 16.5
13:55 1020 30.12 849 25.07 19.5 67.1 15 -7.6 18.3
14:00 1019 30.09 849 25.07 19.5 67.1 14 -8.6 16.6
14:05 1019 30.09 849 25.07 19.6 67.3 11 -11.6 11.2
14:10 1019 30.09 849 25.07 19.6 67.2 10 -12.6 9.4
14:15 1019 30.09 848 25.04 19.5 67.1 11 -12 10.4
14:20 1019 30.09 848 25.04 19.7 67.4 10 -12.7 9.2
14:25 1019 30.09 848 25.04 19.4 67 10 -12.7 9.1
14:30 1019 30.09 848 25.04 19.2 66.5 10 -13.3 8.1
14:35 1019 30.09 848 25.04 19.3 66.7 11 -12.3 9.9
14:40 1019 30.09 848 25.04 19.5 67.1 11 -11.7 11
14:45 1019 30.09 848 25.04 19.4 66.8 10 -13.3 8
14:50 1019 30.09 848 25.04 19.4 66.9 11 -11.6 11.2
14:55 1019 30.09 848 25.04 19.7 67.4 10 -12.5 9.5
15:00 1019 30.09 848 25.04 19.5 67.2 10 -12.9 8.8
15:05 1019 30.09 848 25.04 19.4 66.8 10 -12.9 8.8
15:10 1018 30.06 848 25.04 19.4 67 11 -12 10.4
15:15 1018 30.06 848 25.04 19.6 67.2 11 -11.8 10.7
15:20 1018 30.06 848 25.04 19.5 67.1 9 -13.6 7.5
15:25 1018 30.06 848 25.04 19.5 67.1 11 -11.9 10.5
15:30 1018 30.06 848 25.04 19.8 67.6 11 -11.2 11.9
15:35 1018 30.06 847 25.01 19.5 67.1 10 -12.9 8.9
15:40 1018 30.06 847 25.01 19.4 67 11 -11.9 10.6
15:45 1018 30.06 847 25.01 19.6 67.2 11 -12 10.4
15:50 1018 30.06 847 25.01 19.6 67.3 10 -12.3 9.8
15:55 1018 30.06 847 25.01 19.5 67 11 -11.3 11.7
16:00 1018 30.06 847 25.01 19.6 67.2 11 -11.6 11.1
16:05 1018 30.06 847 25.01 19.3 66.8 12 -10.8 12.6
16:10 1018 30.06 847 25.01 19.7 67.5 9 -13.7 7.3
16:15 1018 30.06 847 25.01 19.6 67.3 10 -12.9 8.7
16:20 1018 30.06 847 25.01 19.6 67.2 10 -13.4 7.9
16:25 1018 30.06 847 25.01 19.5 67.1 11 -11.7 11
16:30 1018 30.06 847 25.01 19.4 66.9 12 -10.8 12.5
16:35 1018 30.06 847 25.01 19 66.1 12 -11.2 11.9
16:40 1018 30.06 847 25.01 18.9 66 11 -12 10.4
16:45 1018 30.06 847 25.01 18.8 65.8 12 -10.9 12.4
16:50 1018 30.06 847 25.01 18.4 65.1 13 -10.9 12.4
16:55 1018 30.06 847 25.01 17.8 64.1 12 -11.8 10.8
17:00 1018 30.06 847 25.01 17.7 63.8 13 -11.2 11.9
17:05 1018 30.06 847 25.01 17.5 63.5 13 -11.5 11.2
17:10 1018 30.06 847 25.01 17.3 63.2 13 -11.7 10.9
17:15 1018 30.06 847 25.01 17.2 62.9 13 -11.5 11.4
17:20 1017 30.03 847 25.01 16.9 62.4 14 -10.8 12.5
17:25 1017 30.03 847 25.01 17.1 62.7 13 -12 10.4
17:30 1017 30.03 847 25.01 17.2 63 13 -11.8 10.8
17:35 1017 30.03 846 24.98 17.1 62.9 13 -11.3 11.6
17:40 1017 30.03 846 24.98 16.7 62 14 -10.6 12.9
17:45 1017 30.03 846 24.98 16.4 61.5 14 -10.9 12.4
17:50 1017 30.03 846 24.98 16.2 61.2 14 -11.1 12
17:55 1017 30.03 846 24.98 16.2 61.1 14 -11.1 12
18:00 1017 30.03 846 24.98 16 60.8 15 -10.5 13.2
18:05 1017 30.03 846 24.98 15.5 60 15 -10.9 12.3
18:10 1017 30.03 846 24.98 15.4 59.7 16 -10.6 13
18:15 1017 30.03 846 24.98 14.9 58.9 16 -10.7 12.7
18:20 1017 30.03 846 24.98 14.9 58.9 16 -10.6 12.9
18:25 1017 30.03 846 24.98 14.7 58.4 18 -9.5 15
18:30 1017 30.03 846 24.98 14.5 58.1 16 -10.7 12.8
18:35 1017 30.03 846 24.98 14.1 57.3 19 -9.4 15.1
18:40 1017 30.03 846 24.98 13.9 56.9 17 -10.5 13.1
18:45 1017 30.03 846 24.98 13.7 56.7 16 -11.3 11.7
18:50 1017 30.03 846 24.98 13.7 56.6 17 -10.7 12.7
18:55 1017 30.03 846 24.98 13.5 56.4 18 -10.5 13.1
19:00 1017 30.03 846 24.98 13.5 56.2 18 -10.3 13.5
19:05 1017 30.03 846 24.98 13.4 56.1 18 -10.4 13.2
19:10 1017 30.03 846 24.98 13.3 56 18 -10.6 12.9
19:15 1017 30.03 846 24.98 13.8 56.9 15 -12.4 9.6
19:20 1016 30 846 24.98 14.5 58.1 15 -12 10.5
19:25 1016 30 846 24.98 14.5 58 15 -12.1 10.3
19:30 1016 30 846 24.98 14.1 57.3 16 -11.5 11.3
19:35 1016 30 846 24.98 13.5 56.3 17 -11.3 11.6
19:40 1016 30 846 24.98 13.1 55.5 18 -10.6 12.9
19:45 1016 30 845 24.95 12.9 55.2 17 -11.6 11.1
19:50 1016 30 846 24.98 13.2 55.8 16 -11.8 10.8
19:55 1016 30 846 24.98 13.1 55.6 18 -10.4 13.2
20:00 1016 30 845 24.95 12.6 54.6 19 -10.6 12.9
20:05 1016 30 846 24.98 12.4 54.4 19 -10.4 13.3
20:10 1016 30 845 24.95 12.2 54 19 -10.5 13.1
20:15 1016 30 845 24.95 12 53.5 20 -10.2 13.7
20:20 1016 30 845 24.95 11.7 53 21 -10.1 13.8
20:25 1016 30 845 24.95 11.8 53.2 21 -10.1 13.8
20:30 1016 30 845 24.95 12.3 54.1 17 -11.9 10.5
20:35 1016 30 845 24.95 13.2 55.8 16 -12.1 10.2
20:40 1016 30 845 24.95 13.5 56.2 16 -11.9 10.6
20:45 1016 30 845 24.95 13.6 56.4 16 -11.8 10.7
20:50 1016 30 845 24.95 13.6 56.5 16 -12 10.4
20:55 1016 30 845 24.95 13.7 56.7 15 -12.3 9.9
21:00 1016 30 845 24.95 13.9 57 15 -12.2 10
21:05 1016 30 845 24.95 13.8 56.8 16 -11.6 11.2
21:10 1016 30 845 24.95 13.5 56.3 16 -12.2 10
21:15 1016 30 845 24.95 13.6 56.5 15 -12.2 10
21:20 1016 30 845 24.95 13.7 56.6 15 -12.5 9.5
21:25 1016 30 845 24.95 13.7 56.7 15 -12.3 9.9
21:30 1016 30 845 24.95 13.7 56.6 15 -12.2 10
21:35 1016 30 845 24.95 13.5 56.3 15 -12.7 9.1
21:40 1015 29.97 845 24.95 13.4 56.1 15 -12.4 9.7
21:45 1015 29.97 845 24.95 13.5 56.2 14 -13.3 8
21:50 1015 29.97 844 24.92 13.5 56.2 15 -12.5 9.5
21:55 1015 29.97 844 24.92 13.4 56.2 14 -13.4 8
22:00 1015 29.97 844 24.92 13.8 56.9 14 -12.8 8.9
22:05 1015 29.97 844 24.92 13.5 56.3 15 -12.5 9.5
22:10 1015 29.97 844 24.92 12.8 55.1 16 -12.4 9.8
22:15 1015 29.97 844 24.92 12.6 54.6 16 -12.7 9.2
22:20 1015 29.97 844 24.92 12.5 54.4 17 -11.7 11
22:25 1015 29.97 844 24.92 12.1 53.8 19 -10.8 12.6
22:30 1015 29.97 844 24.92 11.6 52.8 19 -11.1 12
22:35 1015 29.97 844 24.92 11.5 52.7 19 -11.6 11.1
22:40 1015 29.97 844 24.92 11.7 53 19 -11.4 11.4
22:45 1015 29.97 844 24.92 11.5 52.8 20 -11 12.2
22:50 1015 29.97 844 24.92 11.2 52.1 21 -10.1 13.7
22:55 1015 29.97 844 24.92 11.2 52.1 21 -10.7 12.8
23:00 1015 29.97 844 24.92 10.7 51.2 22 -10 14.1
23:05 1015 29.97 844 24.92 9.7 49.5 23 -10.3 13.5
23:10 1015 29.97 844 24.92 9.8 49.7 22 -11.1 12
23:15 1015 29.97 844 24.92 10.2 50.3 23 -10.1 13.7
23:20 1015 29.97 844 24.92 9.9 49.8 22 -10.8 12.6
23:25 1015 29.97 844 24.92 10.5 50.8 21 -11 12.2
23:30 1014 29.94 844 24.92 10.9 51.6 21 -10.6 12.9
23:35 1014 29.94 844 24.92 10.5 50.9 24 -9.5 15
23:40 1014 29.94 844 24.92 9.4 48.9 26 -9.3 15.3
23:45 1014 29.94 844 24.92 9.1 48.4 26 -9.2 15.5
23:50 1014 29.94 844 24.92 8.8 47.8 25 -10.2 13.7
23:55 1014 29.94 843 24.89 9 48.2 27 -9.1 15.6
24:00 1014 29.94 844 24.92 8.6 47.4 28 -8.9 15.9